Time;durP1;ratioP1;P1;durP2;ratioP2;P2;SDS_P1;SDS_P2;PMS_P1;PMS_P2;Temp;Humidity;BMP_temperature;BMP_pressure;BME280_temperature;BME280_humidity;BME280_pressure;Samples;Min_cycle;Max_cycle;Signal;HPM_P1;HPM_P2
2022/07/28 00:01:38;;;;;;;1.45;0.90;;;16.00;60.20;;;;;;5002457;28;20032;-66
2022/07/28 00:04:08;;;;;;;1.92;0.98;;;16.00;60.20;;;;;;5001933;28;20480;-66
2022/07/28 00:06:34;;;;;;;1.00;0.80;;;16.00;60.20;;;;;;5005615;28;20037;-66
2022/07/28 00:09:00;;;;;;;2.33;0.90;;;16.00;60.20;;;;;;5006931;28;20014;-67
2022/07/28 00:11:30;;;;;;;2.80;1.10;;;16.00;60.30;;;;;;5002325;28;20030;-67
2022/07/28 00:13:56;;;;;;;4.75;1.10;;;16.00;60.30;;;;;;5003235;28;20022;-66
2022/07/28 00:16:22;;;;;;;0.80;0.70;;;16.00;60.30;;;;;;5002473;28;20029;-67
2022/07/28 00:18:48;;;;;;;1.60;1.08;;;16.00;60.30;;;;;;5000743;28;20121;-66
2022/07/28 00:21:14;;;;;;;1.90;1.00;;;16.00;60.30;;;;;;5000234;28;20084;-67
2022/07/28 00:23:45;;;;;;;1.65;0.90;;;16.00;60.30;;;;;;4998713;28;20026;-66
2022/07/28 00:26:14;;;;;;;1.15;0.80;;;16.00;60.30;;;;;;5000567;28;20129;-66
2022/07/28 00:28:41;;;;;;;1.77;1.10;;;16.00;60.40;;;;;;5001153;28;20088;-66
2022/07/28 00:31:09;;;;;;;2.47;1.08;;;15.90;60.70;;;;;;4998901;28;20021;-67
2022/07/28 00:33:39;;;;;;;4.38;2.10;;;15.80;61.20;;;;;;4999435;28;20034;-66
2022/07/28 00:36:06;;;;;;;3.42;2.00;;;15.80;61.10;;;;;;4998622;28;20554;-66
2022/07/28 00:38:33;;;;;;;4.57;1.45;;;15.60;61.50;;;;;;4999192;28;20509;-65
2022/07/28 00:41:11;;;;;;;3.25;1.20;;;15.60;61.60;;;;;;4999629;28;20034;-66
2022/07/28 00:43:45;;;;;;;2.05;1.23;;;15.50;61.70;;;;;;5001119;28;20030;-66
2022/07/28 00:46:16;;;;;;;2.72;1.00;;;15.40;62.00;;;;;;4999532;28;20547;-66
2022/07/28 00:48:49;;;;;;;5.10;1.33;;;15.50;62.00;;;;;;4998735;28;20504;-66
2022/07/28 00:51:19;;;;;;;1.70;0.90;;;15.40;62.40;;;;;;5000143;28;20496;-66
2022/07/28 00:53:48;;;;;;;2.45;1.17;;;15.40;62.40;;;;;;4997427;28;20543;-66
2022/07/28 00:56:17;;;;;;;2.13;1.10;;;15.40;62.20;;;;;;4999694;28;20199;-66
2022/07/28 00:58:44;;;;;;;2.38;1.30;;;15.30;62.30;;;;;;4999748;28;20022;-66
2022/07/28 01:01:14;;;;;;;1.58;1.00;;;15.20;62.70;;;;;;4998778;28;20037;-66
2022/07/28 01:03:44;;;;;;;2.20;1.30;;;15.20;62.70;;;;;;5001564;28;20527;-66
2022/07/28 01:06:19;;;;;;;1.92;1.30;;;15.20;63.00;;;;;;4999260;28;20401;-67
2022/07/28 01:09:12;;;;;;;2.25;1.00;;;15.10;63.10;;;;;;4997175;28;20438;-66
2022/07/28 01:12:05;;;;;;;1.95;1.10;;;15.20;62.90;;;;;;5004969;28;20374;-66
2022/07/28 01:14:59;;;;;;;1.60;1.10;;;15.20;62.90;;;;;;5007594;28;20447;-67
2022/07/28 01:17:32;;;;;;;1.15;0.80;;;15.30;62.80;;;;;;5004201;28;20388;-67
2022/07/28 01:20:17;;;;;;;2.05;1.00;;;15.30;62.60;;;;;;5010103;28;20045;-66
2022/07/28 01:23:16;;;;;;;1.48;0.90;;;15.20;62.60;;;;;;5001926;28;20400;-67
2022/07/28 01:25:59;;;;;;;1.23;0.77;;;15.20;62.80;;;;;;5001919;28;20418;-67
2022/07/28 01:28:52;;;;;;;2.80;1.30;;;15.20;62.70;;;;;;5004027;28;20761;-66
2022/07/28 01:31:25;;;;;;;2.92;1.00;;;15.10;63.50;;;;;;5023568;28;20448;-66
2022/07/28 01:34:05;;;;;;;1.73;1.20;;;15.10;63.40;;;;;;5003179;28;20471;-67
2022/07/28 01:36:37;;;;;;;4.68;0.98;;;15.00;63.70;;;;;;5005210;28;20404;-67
2022/07/28 01:39:04;;;;;;;2.72;0.90;;;15.00;63.70;;;;;;5002032;28;20042;-67
2022/07/28 01:41:33;;;;;;;1.63;0.73;;;15.00;63.50;;;;;;5002877;28;20416;-67
2022/07/28 01:44:06;;;;;;;1.70;0.82;;;15.00;63.30;;;;;;5003824;28;20358;-66
2022/07/28 01:46:33;;;;;;;1.35;1.00;;;15.00;63.40;;;;;;5003598;28;20444;-66
2022/07/28 01:49:01;;;;;;;1.30;0.88;;;15.00;63.40;;;;;;5000914;28;20418;-67
2022/07/28 01:51:29;;;;;;;1.00;0.82;;;15.00;63.40;;;;;;5001265;28;21716;-66
2022/07/28 01:53:59;;;;;;;2.30;1.00;;;15.00;63.20;;;;;;5001019;28;20393;-67
2022/07/28 01:56:30;;;;;;;4.03;1.40;;;14.90;63.50;;;;;;4997721;28;20420;-67
2022/07/28 01:59:01;;;;;;;3.27;1.00;;;14.90;63.70;;;;;;4999428;28;20034;-67
2022/07/28 02:01:28;;;;;;;2.45;0.95;;;14.80;63.60;;;;;;5002996;28;20286;-66
2022/07/28 02:03:57;;;;;;;1.05;0.90;;;14.80;63.70;;;;;;5001145;28;20104;-67
2022/07/28 02:06:25;;;;;;;3.53;0.95;;;14.80;63.70;;;;;;5003689;28;20025;-67
2022/07/28 02:08:55;;;;;;;2.72;1.00;;;14.90;63.60;;;;;;5003843;28;20493;-68
2022/07/28 02:11:41;;;;;;;3.42;1.10;;;14.80;63.70;;;;;;5005970;28;20029;-67
2022/07/28 02:14:10;;;;;;;2.00;0.85;;;14.80;63.90;;;;;;5003401;28;20396;-67
2022/07/28 02:16:40;;;;;;;1.77;1.08;;;14.80;63.80;;;;;;5004212;28;20113;-67
2022/07/28 02:19:07;;;;;;;2.75;0.90;;;14.70;63.90;;;;;;5003971;28;20032;-67
2022/07/28 02:21:35;;;;;;;2.38;1.15;;;14.70;63.90;;;;;;5000646;28;20084;-66
2022/07/28 02:24:04;;;;;;;1.48;0.90;;;14.70;64.20;;;;;;5001947;28;20053;-67
2022/07/28 02:26:45;;;;;;;3.30;1.05;;;14.70;64.20;;;;;;5004987;28;20121;-67
2022/07/28 02:29:13;;;;;;;1.30;0.82;;;14.60;64.70;;;;;;5004831;28;20799;-67
2022/07/28 02:32:04;;;;;;;2.20;1.20;;;14.60;64.70;;;;;;5000049;28;20062;-67
2022/07/28 02:34:32;;;;;;;2.65;1.10;;;14.50;64.70;;;;;;5002730;28;20532;-67
2022/07/28 02:37:01;;;;;;;1.80;1.00;;;14.50;64.80;;;;;;4999868;28;20365;-67
2022/07/28 02:39:40;;;;;;;1.40;0.93;;;14.50;64.90;;;;;;5002759;28;20037;-67
2022/07/28 02:42:14;;;;;;;3.28;1.55;;;14.50;65.00;;;;;;5004971;28;20063;-67
2022/07/28 02:44:46;;;;;;;2.10;1.00;;;14.40;65.30;;;;;;5000097;28;20026;-68
2022/07/28 02:47:20;;;;;;;3.88;1.05;;;14.40;65.60;;;;;;5001114;28;20029;-68
2022/07/28 02:49:47;;;;;;;1.95;0.93;;;14.30;65.70;;;;;;5001910;28;20018;-67
2022/07/28 02:52:15;;;;;;;3.17;1.00;;;14.30;65.70;;;;;;4997553;28;20022;-67
2022/07/28 02:54:43;;;;;;;1.95;1.27;;;14.30;65.40;;;;;;5004033;28;20226;-67
2022/07/28 02:57:12;;;;;;;3.75;1.67;;;14.30;65.80;;;;;;5001697;28;20041;-67
2022/07/28 02:59:40;;;;;;;3.10;1.40;;;14.20;65.90;;;;;;5000690;28;20033;-67
2022/07/28 03:02:07;;;;;;;2.78;1.50;;;14.30;66.00;;;;;;5003164;28;20084;-65
2022/07/28 03:07:21;;;;;;;1.23;0.90;;;14.20;66.20;;;;;;4999225;28;20037;-66
2022/07/28 03:09:47;;;;;;;2.22;1.00;;;14.30;65.80;;;;;;5002253;28;20038;-67
2022/07/28 03:12:13;;;;;;;2.55;1.27;;;14.30;65.70;;;;;;5005625;28;20026;-67
2022/07/28 03:14:40;;;;;;;1.77;1.40;;;14.30;65.60;;;;;;5001119;28;20050;-67
2022/07/28 03:17:07;;;;;;;1.67;1.00;;;14.30;65.80;;;;;;5000965;28;20033;-67
2022/07/28 03:19:33;;;;;;;1.35;0.90;;;14.20;65.70;;;;;;5001126;28;20109;-67
2022/07/28 03:22:03;;;;;;;3.35;0.88;;;14.30;65.70;;;;;;5001964;28;20096;-67
2022/07/28 03:24:36;;;;;;;2.92;0.90;;;14.30;65.50;;;;;;5003193;28;20053;-67
2022/07/28 03:27:14;;;;;;;0.98;0.85;;;14.30;65.40;;;;;;4999775;28;20037;-68
2022/07/28 03:29:42;;;;;;;0.80;0.80;;;14.30;65.30;;;;;;5001719;28;20105;-67
2022/07/28 03:32:08;;;;;;;2.92;1.00;;;14.30;65.10;;;;;;5002192;28;20029;-66
2022/07/28 03:34:35;;;;;;;1.38;0.80;;;14.30;65.20;;;;;;5000079;28;20116;-69
2022/07/28 03:37:12;;;;;;;2.90;1.10;;;14.30;66.00;;;;;;5000280;28;20030;-66
2022/07/28 03:39:45;;;;;;;2.20;0.95;;;14.30;65.40;;;;;;4999479;28;20034;-67
2022/07/28 03:42:14;;;;;;;2.08;0.98;;;14.30;65.50;;;;;;5003606;28;20033;-67
2022/07/28 03:44:41;;;;;;;2.83;1.38;;;14.30;65.50;;;;;;5000162;28;20080;-67
2022/07/28 03:47:07;;;;;;;1.75;1.10;;;14.20;65.70;;;;;;5001070;28;20056;-67
2022/07/28 03:49:37;;;;;;;2.45;1.10;;;14.20;65.70;;;;;;4998870;28;20031;-68
2022/07/28 03:52:04;;;;;;;2.53;1.15;;;14.30;65.90;;;;;;5000478;28;20072;-67
2022/07/28 03:54:30;;;;;;;1.50;1.10;;;14.20;66.00;;;;;;4999608;28;20029;-67
2022/07/28 03:56:56;;;;;;;4.35;1.40;;;14.20;66.20;;;;;;5001167;28;20036;-66
2022/07/28 03:59:26;;;;;;;1.65;1.10;;;14.10;66.40;;;;;;5003894;28;20084;-67
2022/07/28 04:01:56;;;;;;;2.17;1.13;;;14.20;66.50;;;;;;5007439;28;20030;-67
2022/07/28 04:04:23;;;;;;;3.10;1.50;;;14.10;66.80;;;;;;4996905;28;20034;-67
2022/07/28 04:06:49;;;;;;;2.05;1.10;;;14.10;67.00;;;;;;4995572;28;20113;-66
2022/07/28 04:09:16;;;;;;;3.83;1.52;;;14.10;66.90;;;;;;5000419;28;20014;-66
2022/07/28 04:11:48;;;;;;;2.50;1.10;;;14.10;67.30;;;;;;5001766;28;20113;-66
2022/07/28 04:14:16;;;;;;;2.15;1.13;;;14.10;67.20;;;;;;4999509;28;20045;-66
2022/07/28 04:16:46;;;;;;;2.00;1.30;;;14.00;67.70;;;;;;5001400;28;20037;-67
2022/07/28 04:19:15;;;;;;;2.20;1.30;;;14.00;67.90;;;;;;4999672;28;20030;-66
2022/07/28 04:21:44;;;;;;;5.18;1.50;;;14.00;68.10;;;;;;5001448;28;20029;-65
2022/07/28 04:24:11;;;;;;;2.65;1.20;;;14.10;68.10;;;;;;5002137;28;20030;-67
2022/07/28 04:26:37;;;;;;;2.97;1.05;;;14.10;67.90;;;;;;4998631;28;20072;-68
2022/07/28 04:29:04;;;;;;;2.40;1.05;;;14.20;67.80;;;;;;4998253;28;20125;-67
2022/07/28 04:31:30;;;;;;;3.55;1.40;;;14.20;67.90;;;;;;5000582;28;20073;-67
2022/07/28 04:33:57;;;;;;;2.75;1.40;;;14.20;67.80;;;;;;5000758;28;20552;-67
2022/07/28 04:36:24;;;;;;;3.88;1.35;;;14.30;67.80;;;;;;4999144;28;20066;-67
2022/07/28 04:38:53;;;;;;;3.10;1.40;;;14.30;67.60;;;;;;5003594;28;20021;-66
2022/07/28 04:41:19;;;;;;;3.47;1.40;;;14.30;67.50;;;;;;4998269;28;20034;-66
2022/07/28 04:43:46;;;;;;;2.72;1.30;;;14.40;67.60;;;;;;4999315;28;20077;-67
2022/07/28 04:46:12;;;;;;;4.43;1.15;;;14.40;67.70;;;;;;5002700;28;20064;-66
2022/07/28 04:48:38;;;;;;;2.83;1.30;;;14.50;67.50;;;;;;5006569;28;20026;-66
2022/07/28 04:51:07;;;;;;;1.77;1.13;;;14.50;67.30;;;;;;5004141;28;20026;-65
2022/07/28 04:53:33;;;;;;;2.00;1.20;;;14.60;67.20;;;;;;5003982;28;20080;-66
2022/07/28 04:55:59;;;;;;;2.88;1.10;;;14.60;67.10;;;;;;5002203;28;20113;-66
2022/07/28 04:58:26;;;;;;;3.65;1.35;;;14.60;66.90;;;;;;5000675;28;20113;-66
2022/07/28 05:00:52;;;;;;;2.60;1.10;;;14.60;66.90;;;;;;5005766;28;20034;-65
2022/07/28 05:03:22;;;;;;;2.78;1.20;;;14.60;67.00;;;;;;5004766;28;20026;-66
2022/07/28 05:05:48;;;;;;;3.78;1.25;;;14.60;67.00;;;;;;5004451;28;20480;-67
2022/07/28 05:08:15;;;;;;;3.83;1.50;;;14.70;66.90;;;;;;5003290;28;20077;-66
2022/07/28 05:10:43;;;;;;;2.38;1.40;;;14.70;66.90;;;;;;5003670;28;20540;-67
2022/07/28 05:13:09;;;;;;;3.03;1.20;;;14.80;66.90;;;;;;5001962;28;20069;-67
2022/07/28 05:15:35;;;;;;;4.03;1.40;;;14.80;66.70;;;;;;5001039;28;20041;-66
2022/07/28 05:18:01;;;;;;;2.13;1.30;;;14.80;66.60;;;;;;5004346;28;20033;-67
2022/07/28 05:20:27;;;;;;;1.83;1.10;;;14.90;66.50;;;;;;5005085;28;20030;-66
2022/07/28 05:22:56;;;;;;;1.92;1.00;;;15.00;66.10;;;;;;5000247;28;20473;-66
2022/07/28 05:25:24;;;;;;;4.43;1.23;;;15.10;65.80;;;;;;5003362;28;20030;-65
2022/07/28 05:27:51;;;;;;;1.75;1.20;;;15.20;65.60;;;;;;5001832;28;20015;-67
2022/07/28 05:30:18;;;;;;;2.17;1.02;;;15.30;65.50;;;;;;5004409;28;20579;-66
2022/07/28 05:32:47;;;;;;;2.63;1.00;;;16.10;64.40;;;;;;5000232;28;20058;-67
2022/07/28 05:35:14;;;;;;;2.92;1.30;;;17.00;62.20;;;;;;5003651;28;20038;-67
2022/07/28 05:37:40;;;;;;;3.38;1.10;;;17.70;59.70;;;;;;5001804;28;20032;-67
2022/07/28 05:40:17;;;;;;;4.05;1.25;;;18.40;58.00;;;;;;5003961;28;20030;-66
2022/07/28 05:42:48;;;;;;;2.65;0.90;;;18.90;56.10;;;;;;5002255;28;20037;-69
2022/07/28 05:45:14;;;;;;;2.05;1.08;;;19.40;54.70;;;;;;5004088;28;20050;-67
2022/07/28 05:47:51;;;;;;;4.00;1.33;;;19.90;53.90;;;;;;5003726;28;20022;-66
2022/07/28 05:50:23;;;;;;;1.88;0.93;;;20.30;53.00;;;;;;5006495;28;20030;-66
2022/07/28 05:52:50;;;;;;;3.85;1.15;;;20.80;52.20;;;;;;4999913;28;20031;-66
2022/07/28 05:55:19;;;;;;;3.65;1.17;;;20.80;51.60;;;;;;5001578;28;20037;-68
2022/07/28 05:57:48;;;;;;;1.48;0.90;;;20.40;51.40;;;;;;4999571;28;20096;-67
2022/07/28 06:00:19;;;;;;;2.45;1.08;;;20.30;51.20;;;;;;5015745;28;20401;-65
2022/07/28 06:02:47;;;;;;;3.25;1.00;;;20.20;51.60;;;;;;5008307;28;20058;-67
2022/07/28 06:05:16;;;;;;;1.77;0.90;;;19.80;52.10;;;;;;5005873;28;20026;-66
2022/07/28 06:07:43;;;;;;;4.03;1.38;;;20.10;52.10;;;;;;5006379;28;20030;-70
2022/07/28 06:10:09;;;;;;;2.42;1.08;;;20.40;51.50;;;;;;5005678;28;20113;-68
2022/07/28 06:12:40;;;;;;;3.08;1.00;;;20.80;50.90;;;;;;5006775;28;20465;-67
2022/07/28 06:15:13;;;;;;;2.22;0.90;;;21.20;50.20;;;;;;5004270;28;20480;-67
2022/07/28 06:17:43;;;;;;;1.85;1.00;;;21.40;49.70;;;;;;5004846;28;20376;-68
2022/07/28 06:20:10;;;;;;;3.35;1.00;;;21.40;49.40;;;;;;5008930;28;20105;-68
2022/07/28 06:22:46;;;;;;;4.18;1.27;;;21.40;49.40;;;;;;5006809;28;20029;-68
2022/07/28 06:25:31;;;;;;;2.78;1.10;;;21.40;49.30;;;;;;5007479;28;20083;-68
2022/07/28 06:28:02;;;;;;;2.70;1.10;;;21.40;49.30;;;;;;5008205;28;20050;-67
2022/07/28 06:30:29;;;;;;;3.23;1.20;;;21.40;49.10;;;;;;5012690;28;20026;-68
2022/07/28 06:32:56;;;;;;;2.80;1.20;;;20.80;49.90;;;;;;5007592;28;20026;-67
2022/07/28 06:35:26;;;;;;;2.60;0.90;;;20.50;50.90;;;;;;5008171;28;20033;-67
2022/07/28 06:37:52;;;;;;;2.05;0.90;;;20.40;51.60;;;;;;5010768;28;20034;-68
2022/07/28 06:40:20;;;;;;;3.50;0.98;;;20.70;51.70;;;;;;5012093;28;20029;-67
2022/07/28 06:42:49;;;;;;;1.42;1.00;;;20.90;51.60;;;;;;5009597;28;20041;-67
2022/07/28 06:45:15;;;;;;;3.10;1.00;;;21.20;51.30;;;;;;5025350;28;20088;-67
2022/07/28 06:47:49;;;;;;;3.42;0.90;;;21.20;51.20;;;;;;5011933;28;20061;-67
2022/07/28 06:50:16;;;;;;;1.92;1.08;;;20.70;51.00;;;;;;5011551;28;20033;-67
2022/07/28 06:52:45;;;;;;;3.30;1.45;;;20.00;52.00;;;;;;5005894;28;20397;-67
2022/07/28 06:55:14;;;;;;;3.38;0.98;;;19.50;52.90;;;;;;5000716;28;20097;-67
2022/07/28 06:57:42;;;;;;;3.65;1.20;;;19.30;54.00;;;;;;5002309;28;20488;-67
2022/07/28 07:00:11;;;;;;;2.72;1.00;;;19.00;54.10;;;;;;5008333;28;20022;-67
2022/07/28 07:02:39;;;;;;;3.42;1.10;;;18.90;54.70;;;;;;4998936;28;20038;-67
2022/07/28 07:05:08;;;;;;;1.75;1.05;;;18.80;54.70;;;;;;5002540;28;20515;-67
2022/07/28 07:07:38;;;;;;;1.23;0.70;;;18.90;55.00;;;;;;5001140;28;20034;-66
2022/07/28 07:10:04;;;;;;;1.23;0.75;;;18.90;54.70;;;;;;4999673;28;20018;-66
2022/07/28 07:12:37;;;;;;;2.15;0.90;;;18.90;54.50;;;;;;5001405;28;20476;-66
2022/07/28 07:15:06;;;;;;;2.95;1.00;;;18.80;54.70;;;;;;4999860;28;20026;-66
2022/07/28 07:17:33;;;;;;;3.38;1.13;;;18.70;53.90;;;;;;5005702;28;20049;-66
2022/07/28 07:19:59;;;;;;;2.22;0.80;;;18.60;54.40;;;;;;5002102;28;20667;-66
2022/07/28 07:22:26;;;;;;;3.90;1.10;;;18.40;54.20;;;;;;5001791;28;20030;-66
2022/07/28 07:24:52;;;;;;;2.65;1.15;;;18.40;54.00;;;;;;5002470;28;20117;-67
2022/07/28 07:27:18;;;;;;;2.65;1.30;;;18.40;54.20;;;;;;5001508;28;20481;-67
2022/07/28 07:29:45;;;;;;;1.75;0.93;;;18.40;53.80;;;;;;5002689;28;20022;-67
2022/07/28 07:32:11;;;;;;;2.47;0.98;;;18.30;53.90;;;;;;5005743;28;20033;-66
2022/07/28 07:34:38;;;;;;;3.17;1.23;;;18.40;54.10;;;;;;5007868;28;20054;-67
2022/07/28 07:37:05;;;;;;;1.52;0.80;;;18.60;53.70;;;;;;4996124;28;20108;-67
2022/07/28 07:39:35;;;;;;;2.15;0.80;;;18.60;53.70;;;;;;5001628;28;20029;-67
2022/07/28 07:42:03;;;;;;;1.85;0.75;;;18.90;53.70;;;;;;5002423;28;20065;-67
2022/07/28 07:44:30;;;;;;;2.10;0.93;;;19.20;53.20;;;;;;5010436;28;20030;-67
2022/07/28 07:46:56;;;;;;;2.35;1.10;;;19.40;52.50;;;;;;5009580;28;20026;-68
2022/07/28 07:49:28;;;;;;;2.03;0.77;;;19.30;51.40;;;;;;5002851;28;20053;-67
2022/07/28 07:51:54;;;;;;;1.58;0.90;;;19.30;51.60;;;;;;5004900;28;20049;-66
2022/07/28 07:54:20;;;;;;;3.47;0.95;;;19.20;51.80;;;;;;5001588;28;20115;-67
2022/07/28 07:56:47;;;;;;;1.52;0.90;;;19.40;51.90;;;;;;5002553;28;20029;-66
2022/07/28 07:59:15;;;;;;;1.23;0.77;;;19.60;51.40;;;;;;5000553;28;20025;-65
2022/07/28 08:01:41;;;;;;;3.17;0.70;;;19.90;50.10;;;;;;5004532;28;20026;-65
2022/07/28 08:04:07;;;;;;;1.15;0.73;;;19.80;50.20;;;;;;5007986;28;20072;-66
2022/07/28 08:06:36;;;;;;;2.33;1.00;;;20.00;49.80;;;;;;4998462;28;20041;-66
2022/07/28 08:09:03;;;;;;;1.30;0.85;;;20.20;49.10;;;;;;4998774;28;20076;-66
2022/07/28 08:11:29;;;;;;;1.15;0.70;;;20.30;48.30;;;;;;5006546;28;20025;-66
2022/07/28 08:13:55;;;;;;;1.63;0.80;;;20.40;48.20;;;;;;5000510;28;20034;-67
2022/07/28 08:16:24;;;;;;;1.80;0.85;;;20.60;48.00;;;;;;5001335;28;20026;-67
2022/07/28 08:18:50;;;;;;;2.10;0.90;;;20.70;47.30;;;;;;4998008;28;20066;-66
2022/07/28 08:21:16;;;;;;;2.30;0.70;;;20.50;46.60;;;;;;4999506;28;20037;-66
2022/07/28 08:23:43;;;;;;;3.05;0.93;;;20.30;46.20;;;;;;4993337;28;20026;-67
2022/07/28 08:26:09;;;;;;;1.67;0.80;;;20.20;46.80;;;;;;4997995;28;20030;-67
2022/07/28 08:28:35;;;;;;;1.75;0.80;;;20.30;46.20;;;;;;5001032;28;20755;-67
2022/07/28 08:31:01;;;;;;;1.23;0.98;;;20.20;46.40;;;;;;4998408;28;20030;-67
2022/07/28 08:33:28;;;;;;;0.88;0.77;;;20.10;45.90;;;;;;4995419;28;20034;-67
2022/07/28 08:35:54;;;;;;;2.30;0.90;;;20.00;46.20;;;;;;4999217;28;20030;-66
2022/07/28 08:38:20;;;;;;;1.60;0.85;;;19.90;46.30;;;;;;5000369;28;20026;-67
2022/07/28 08:40:49;;;;;;;1.25;0.70;;;20.00;46.80;;;;;;5002811;28;20032;-65
2022/07/28 08:43:31;;;;;;;1.50;0.82;;;20.10;46.60;;;;;;4998906;28;20802;-66
2022/07/28 08:46:02;;;;;;;1.08;0.60;;;20.10;46.30;;;;;;4998921;28;20038;-66
2022/07/28 08:48:35;;;;;;;1.75;0.73;;;20.20;46.60;;;;;;4997814;28;20100;-67
2022/07/28 08:51:11;;;;;;;2.85;0.80;;;20.20;46.40;;;;;;4997700;28;20037;-66
2022/07/28 08:53:38;;;;;;;1.05;0.68;;;20.20;46.50;;;;;;4997923;28;20034;-67
2022/07/28 08:56:13;;;;;;;1.33;0.60;;;20.20;46.20;;;;;;5003619;28;20026;-67
2022/07/28 08:58:39;;;;;;;1.15;0.80;;;20.10;46.60;;;;;;4998807;28;20041;-66
2022/07/28 09:01:09;;;;;;;1.40;0.70;;;20.30;46.70;;;;;;4999582;28;20030;-67
2022/07/28 09:03:39;;;;;;;0.80;0.70;;;20.50;46.00;;;;;;4999961;28;20042;-66
2022/07/28 09:06:10;;;;;;;1.13;0.50;;;20.60;46.30;;;;;;5004503;28;20092;-67
2022/07/28 09:08:41;;;;;;;1.05;0.73;;;20.90;46.20;;;;;;5004980;28;20033;-67
2022/07/28 09:11:08;;;;;;;1.33;0.75;;;21.00;45.90;;;;;;4997879;28;20023;-67
2022/07/28 09:13:34;;;;;;;2.83;0.80;;;21.30;45.60;;;;;;5000660;28;20393;-67
2022/07/28 09:16:01;;;;;;;1.75;0.93;;;21.30;45.40;;;;;;5000398;28;20025;-66
2022/07/28 09:18:32;;;;;;;1.42;0.60;;;21.60;44.90;;;;;;5000401;28;20037;-66
2022/07/28 09:20:58;;;;;;;1.00;0.70;;;21.40;44.10;;;;;;5001663;28;20030;-67
2022/07/28 09:23:24;;;;;;;1.50;0.70;;;21.30;44.50;;;;;;5002024;28;20399;-67
2022/07/28 09:26:08;;;;;;;1.95;0.80;;;21.40;44.30;;;;;;5002662;28;20029;-66
2022/07/28 09:28:49;;;;;;;1.00;0.70;;;21.60;44.40;;;;;;5005249;28;20133;-66
2022/07/28 09:31:23;;;;;;;1.25;0.88;;;21.90;44.10;;;;;;5008718;28;20144;-67
2022/07/28 09:34:00;;;;;;;1.33;0.85;;;22.00;43.00;;;;;;5010350;28;20417;-67
2022/07/28 09:36:41;;;;;;;1.77;0.90;;;21.70;43.20;;;;;;5005456;28;20122;-67
2022/07/28 09:39:07;;;;;;;2.13;0.77;;;21.60;43.00;;;;;;5007645;28;20602;-66
2022/07/28 09:41:57;;;;;;;0.98;0.68;;;21.60;43.10;;;;;;5008949;28;20037;-65
2022/07/28 09:44:25;;;;;;;0.70;0.52;;;21.40;42.90;;;;;;5008947;28;20045;-65
2022/07/28 09:46:55;;;;;;;1.88;0.75;;;21.60;43.50;;;;;;5007385;28;20033;-65
2022/07/28 09:49:38;;;;;;;1.00;0.68;;;21.80;43.30;;;;;;5009499;28;20053;-66
2022/07/28 09:52:07;;;;;;;1.30;0.65;;;21.80;42.10;;;;;;5006209;28;20467;-66
2022/07/28 09:54:36;;;;;;;0.75;0.75;;;21.80;42.90;;;;;;5004521;28;20026;-67
2022/07/28 09:57:10;;;;;;;0.73;0.60;;;21.90;42.60;;;;;;5005600;28;20106;-66
2022/07/28 09:59:45;;;;;;;1.23;0.70;;;21.90;41.80;;;;;;5007512;28;20033;-67
2022/07/28 10:02:12;;;;;;;0.90;0.60;;;21.80;41.70;;;;;;5007973;28;20057;-66
2022/07/28 10:04:41;;;;;;;1.60;0.80;;;21.80;41.70;;;;;;5012609;28;20038;-66
2022/07/28 10:07:12;;;;;;;1.40;0.68;;;21.80;42.00;;;;;;5011313;28;20014;-66
2022/07/28 10:09:39;;;;;;;0.98;0.60;;;22.10;42.30;;;;;;5010441;28;20505;-66
2022/07/28 10:12:23;;;;;;;1.83;0.70;;;22.30;41.80;;;;;;5014294;28;20018;-66
2022/07/28 10:14:50;;;;;;;1.27;0.70;;;22.20;41.00;;;;;;5009792;28;20030;-66
2022/07/28 10:17:47;;;;;;;1.52;0.60;;;22.20;40.80;;;;;;5011409;28;20211;-66
2022/07/28 10:20:15;;;;;;;1.40;0.70;;;22.00;40.60;;;;;;5005623;28;20080;-66
2022/07/28 10:22:42;;;;;;;0.50;0.45;;;21.90;40.70;;;;;;5010200;28;20030;-67
2022/07/28 10:25:10;;;;;;;1.10;0.70;;;22.10;41.40;;;;;;5006841;28;20065;-67
2022/07/28 10:27:43;;;;;;;0.95;0.60;;;22.30;41.10;;;;;;5009914;28;20117;-67
2022/07/28 10:30:15;;;;;;;1.48;0.80;;;22.50;41.20;;;;;;5010271;28;20026;-67
2022/07/28 10:32:43;;;;;;;1.58;0.68;;;22.60;40.70;;;;;;5010533;28;20111;-67
2022/07/28 10:35:17;;;;;;;1.40;0.65;;;22.40;40.30;;;;;;5009903;28;20038;-68
2022/07/28 10:38:03;;;;;;;1.23;0.70;;;22.20;40.20;;;;;;5013780;28;20711;-67
2022/07/28 10:40:37;;;;;;;1.20;0.68;;;22.30;40.50;;;;;;5014251;28;20014;-67
2022/07/28 10:43:04;;;;;;;1.02;0.60;;;22.30;40.60;;;;;;5007137;28;20030;-67
2022/07/28 10:45:40;;;;;;;0.70;0.57;;;22.60;40.60;;;;;;5014837;28;20030;-67
2022/07/28 10:48:08;;;;;;;0.93;0.63;;;22.80;40.60;;;;;;5012087;28;20440;-66
2022/07/28 10:50:35;;;;;;;1.23;0.70;;;23.10;40.70;;;;;;5008457;28;20120;-66
2022/07/28 10:53:16;;;;;;;1.23;0.60;;;23.20;40.30;;;;;;5008837;28;20603;-66
2022/07/28 10:55:51;;;;;;;1.40;0.77;;;23.30;40.10;;;;;;5012004;28;20169;-66
2022/07/28 10:58:43;;;;;;;1.38;0.73;;;23.10;39.30;;;;;;5010905;28;20034;-66
2022/07/28 11:01:09;;;;;;;;;;;22.90;39.70;;;;;;5008680;28;20044;-66
2022/07/28 11:03:38;;;;;;;1.80;0.80;;;22.90;39.60;;;;;;5012886;28;19905;-66
2022/07/28 11:06:44;;;;;;;2.25;0.90;;;22.90;39.70;;;;;;5009742;28;20032;-66
2022/07/28 11:09:16;;;;;;;1.30;0.80;;;22.80;40.00;;;;;;4987686;28;20049;-66
2022/07/28 11:11:53;;;;;;;1.88;0.90;;;22.80;40.20;;;;;;5008860;28;20026;-66
2022/07/28 11:14:23;;;;;;;2.05;0.70;;;22.90;39.80;;;;;;5009686;28;20026;-66
2022/07/28 11:17:10;;;;;;;3.58;0.80;;;23.00;40.00;;;;;;5011187;28;20096;-67
2022/07/28 11:19:44;;;;;;;1.70;0.80;;;23.10;38.90;;;;;;5006585;28;20456;-67
2022/07/28 11:22:17;;;;;;;2.33;0.70;;;23.00;39.20;;;;;;5010208;28;20030;-67
2022/07/28 11:25:05;;;;;;;1.15;0.70;;;23.20;39.00;;;;;;5014934;28;20061;-66
2022/07/28 11:27:41;;;;;;;3.28;0.70;;;23.20;39.20;;;;;;5006663;28;20022;-67
2022/07/28 11:30:34;;;;;;;1.23;0.75;;;23.30;39.20;;;;;;5007347;28;20052;-67
2022/07/28 11:33:05;;;;;;;1.13;0.63;;;23.30;38.90;;;;;;5010505;28;20046;-66
2022/07/28 11:36:00;;;;;;;2.67;0.87;;;23.30;39.40;;;;;;5009896;28;20036;-66
2022/07/28 11:38:27;;;;;;;2.08;0.65;;;23.30;39.40;;;;;;5016940;28;20556;-66
2022/07/28 11:40:55;;;;;;;1.65;0.88;;;23.30;38.80;;;;;;5010717;28;20037;-65
2022/07/28 11:43:21;;;;;;;1.35;0.70;;;23.30;39.00;;;;;;5006673;28;20026;-66
2022/07/28 11:45:51;;;;;;;1.45;0.68;;;23.20;39.00;;;;;;5012773;28;20508;-66
2022/07/28 11:48:24;;;;;;;0.80;0.60;;;23.20;39.30;;;;;;5008469;28;20017;-66
2022/07/28 11:51:02;;;;;;;0.98;0.50;;;23.40;39.10;;;;;;5007972;28;20021;-66
2022/07/28 11:53:42;;;;;;;0.88;0.55;;;23.70;39.20;;;;;;5008777;28;20026;-66
2022/07/28 11:56:18;;;;;;;2.35;0.80;;;23.90;38.80;;;;;;5008424;28;20030;-66
2022/07/28 11:58:44;;;;;;;1.92;0.70;;;23.90;38.40;;;;;;5007324;28;20053;-65
2022/07/28 12:01:14;;;;;;;1.92;0.80;;;23.80;38.20;;;;;;5008052;28;20053;-66
2022/07/28 12:03:47;;;;;;;1.52;0.73;;;23.90;38.00;;;;;;5009818;28;20026;-66
2022/07/28 12:06:14;;;;;;;1.63;0.65;;;23.80;37.50;;;;;;5010365;28;20620;-66
2022/07/28 12:09:02;;;;;;;1.45;0.65;;;24.00;38.00;;;;;;5008919;28;20036;-66
2022/07/28 12:11:37;;;;;;;1.00;0.70;;;24.30;38.00;;;;;;5009459;28;20037;-66
2022/07/28 12:14:05;;;;;;;1.90;0.80;;;24.30;37.50;;;;;;5006332;28;20034;-66
2022/07/28 12:16:34;;;;;;;1.45;0.75;;;24.40;38.20;;;;;;5007969;28;20540;-66
2022/07/28 12:19:01;;;;;;;1.52;0.75;;;24.30;37.20;;;;;;5012567;28;20072;-66
2022/07/28 12:21:44;;;;;;;1.40;0.77;;;24.30;37.60;;;;;;5004133;28;20026;-66
2022/07/28 12:24:11;;;;;;;2.10;0.68;;;24.70;37.60;;;;;;5002569;28;20148;-66
2022/07/28 12:26:38;;;;;;;1.60;0.60;;;24.90;37.20;;;;;;5004907;28;20022;-66
2022/07/28 12:29:04;;;;;;;0.80;0.65;;;25.20;37.00;;;;;;5006531;28;20080;-66
2022/07/28 12:31:32;;;;;;;0.95;0.50;;;25.00;35.10;;;;;;5006384;28;20014;-66
2022/07/28 12:34:01;;;;;;;1.35;0.90;;;24.50;35.40;;;;;;5006827;28;20579;-66
2022/07/28 12:36:27;;;;;;;1.02;0.60;;;24.10;35.90;;;;;;5001897;28;20109;-66
2022/07/28 12:38:53;;;;;;;2.40;0.80;;;24.00;36.70;;;;;;5005020;28;20480;-66
2022/07/28 12:41:19;;;;;;;1.85;0.80;;;24.00;36.80;;;;;;5006867;28;20084;-67
2022/07/28 12:43:52;;;;;;;0.73;0.60;;;24.20;37.00;;;;;;5007279;28;20041;-65
2022/07/28 12:46:23;;;;;;;1.30;0.70;;;24.80;36.60;;;;;;5005596;28;20072;-66
2022/07/28 12:48:49;;;;;;;2.00;0.90;;;25.10;36.50;;;;;;5006362;28;20064;-66
2022/07/28 12:51:30;;;;;;;1.02;0.60;;;25.20;35.90;;;;;;5006566;28;20030;-66
2022/07/28 12:53:56;;;;;;;0.98;0.60;;;25.10;36.40;;;;;;5004698;28;20057;-66
2022/07/28 12:56:21;;;;;;;5.75;2.67;;;25.10;36.00;;;;;;5004259;28;20034;-67
2022/07/28 12:58:50;;;;;;;2.50;1.70;;;25.30;36.10;;;;;;5005756;28;20030;-65
2022/07/28 13:01:15;;;;;;;1.42;0.80;;;25.30;35.80;;;;;;5008019;28;20018;-66
2022/07/28 13:03:47;;;;;;;1.33;0.73;;;25.10;35.70;;;;;;5006445;28;20029;-65
2022/07/28 13:06:14;;;;;;;1.13;0.80;;;25.50;36.30;;;;;;5006709;28;20069;-66
2022/07/28 13:08:45;;;;;;;0.75;0.50;;;25.90;35.70;;;;;;5010035;28;20097;-66